Time;durP1;ratioP1;P1;durP2;ratioP2;P2;SDS_P1;SDS_P2;PMS_P1;PMS_P2;Temp;Humidity;BMP_temperature;BMP_pressure;BME280_temperature;BME280_humidity;BME280_pressure;Samples;Min_cycle;Max_cycle;Signal;HPM_P1;HPM_P2
2021/09/17 00:00:38;;;;;;;;;14.50;14.50;;;;;20.69;56.50;101501.31;5022184;28;45379;-89
2021/09/17 00:03:04;;;;;;;;;15.75;13.75;;;;;20.67;56.65;101500.41;5021530;28;45489;-89
2021/09/17 00:05:32;;;;;;;;;16.00;12.25;;;;;20.59;57.23;101497.66;5019207;28;45402;-89
2021/09/17 00:07:57;;;;;;;;;13.25;12.25;;;;;20.53;57.10;101505.47;5019597;28;45340;-89
2021/09/17 00:10:24;;;;;;;;;14.25;13.00;;;;;20.51;57.49;101504.56;5026736;28;45225;-90
2021/09/17 00:12:49;;;;;;;;;17.75;14.25;;;;;20.48;57.35;101494.88;5034645;28;44850;-90
2021/09/17 00:15:16;;;;;;;;;9.25;9.25;;;;;20.51;57.02;101500.22;5037863;28;46867;-89
2021/09/17 00:17:42;;;;;;;;;15.00;14.25;;;;;20.45;56.75;101496.59;5038125;28;45350;-94
2021/09/17 00:20:10;;;;;;;;;16.75;15.00;;;;;20.40;57.38;101481.63;5057250;28;44735;-90
2021/09/17 00:22:37;;;;;;;;;12.50;12.50;;;;;20.41;56.92;101490.38;5037247;28;45233;-90
2021/09/17 00:25:04;;;;;;;;;13.25;13.25;;;;;20.37;57.20;101488.59;5019581;28;47797;-89
2021/09/17 00:27:30;;;;;;;;;15.50;12.50;;;;;20.37;57.38;101481.56;5034973;28;45795;-89
2021/09/17 00:29:55;;;;;;;;;15.75;13.50;;;;;20.35;57.08;101493.84;5039642;28;45462;-89
2021/09/17 00:32:21;;;;;;;;;13.00;11.50;;;;;20.33;57.32;101486.75;5026446;28;45308;-90
2021/09/17 00:34:47;;;;;;;;;15.25;14.25;;;;;20.29;56.85;101490.22;5026483;28;45264;-88
2021/09/17 00:37:12;;;;;;;;;14.00;13.00;;;;;20.29;57.56;101485.84;5041719;28;45465;-90
2021/09/17 00:39:38;;;;;;;;;12.75;12.00;;;;;20.30;57.46;101492.00;5026463;28;45418;-89
2021/09/17 00:42:04;;;;;;;;;15.75;12.25;;;;;20.23;57.43;101472.59;5041127;28;45261;-90
2021/09/17 00:44:30;;;;;;;;;14.25;14.00;;;;;20.24;57.97;101488.38;5046582;28;47614;-88
2021/09/17 00:46:56;;;;;;;;;14.75;14.00;;;;;20.18;57.50;101480.41;5026651;28;45283;-89
2021/09/17 00:49:23;;;;;;;;;14.25;14.25;;;;;20.12;57.73;101475.03;5023165;28;45228;-89
2021/09/17 00:51:49;;;;;;;;;15.50;15.00;;;;;20.14;58.11;101477.72;5023069;28;45234;-90
2021/09/17 00:54:17;;;;;;;;;12.25;12.25;;;;;20.12;58.08;101479.44;5027242;28;47004;-90
2021/09/17 00:56:43;;;;;;;;;12.25;10.25;;;;;20.08;58.66;101476.75;5027736;28;46088;-91
2021/09/17 00:59:09;;;;;;;;;16.00;14.75;;;;;20.12;58.48;101482.06;5027972;28;45318;-90
2021/09/17 01:01:36;;;;;;;;;14.25;13.25;;;;;20.05;58.74;101471.44;5030803;28;45522;-90
2021/09/17 01:04:03;;;;;;;;;13.75;13.00;;;;;20.03;58.65;101469.66;5043633;28;47049;-90
2021/09/17 01:06:29;;;;;;;;;12.25;9.25;;;;;20.01;58.28;101467.00;5028432;28;45403;-91
2021/09/17 01:08:56;;;;;;;;;13.75;12.25;;;;;20.01;58.48;101467.00;5027982;28;45204;-90
2021/09/17 01:11:37;;;;;;;;;13.75;12.25;;;;;20.02;58.71;101462.63;5028641;28;45380;-90
2021/09/17 01:14:06;;;;;;;;;15.75;13.25;;;;;20.02;58.67;101468.78;5029058;28;46442;-92
2021/09/17 01:16:32;;;;;;;;;11.25;10.25;;;;;20.00;58.90;101464.34;5028561;28;45732;-91
2021/09/17 01:18:58;;;;;;;;;14.25;12.00;;;;;19.98;58.58;101466.94;5027555;28;45356;-90
2021/09/17 01:21:24;;;;;;;;;16.50;13.00;;;;;19.93;58.91;101458.97;5043445;28;45327;-90
2021/09/17 01:23:50;;;;;;;;;15.75;14.25;;;;;19.90;59.14;101450.16;5026929;28;45356;-90
2021/09/17 01:26:18;;;;;;;;;14.25;13.00;;;;;19.91;58.91;101446.69;5043203;28;45397;-91
2021/09/17 01:28:44;;;;;;;;;13.50;13.00;;;;;19.92;59.42;101451.97;5040754;28;45261;-89
2021/09/17 01:31:10;;;;;;;;;12.00;11.00;;;;;19.88;59.44;101444.00;5028027;28;45240;-91
2021/09/17 01:33:36;;;;;;;;;13.50;12.25;;;;;19.83;59.35;101433.38;5037168;28;47689;-89
2021/09/17 01:36:07;;;;;;;;;11.75;10.25;;;;;19.89;59.10;101446.63;5021793;28;45410;-89
2021/09/17 01:38:34;;;;;;;;;13.75;10.75;;;;;19.88;59.76;101442.25;5020660;28;45181;-90
2021/09/17 01:41:00;;;;;;;;;15.25;13.25;;;;;19.85;59.45;101430.78;5023391;28;45298;-89
2021/09/17 01:43:28;;;;;;;;;13.50;11.50;;;;;19.82;59.61;101431.63;5029942;28;45255;-91
2021/09/17 01:45:54;;;;;;;;;15.25;12.00;;;;;19.85;59.85;101442.19;5030851;28;45306;-92
2021/09/17 01:48:20;;;;;;;;;14.75;13.00;;;;;19.83;59.39;101437.72;5030040;28;45416;-92
2021/09/17 01:50:46;;;;;;;;;13.25;11.25;;;;;19.77;59.92;101433.25;5044064;28;44902;-91
2021/09/17 01:53:12;;;;;;;;;14.25;14.00;;;;;19.77;60.07;101428.91;5027551;28;46615;-91
2021/09/17 01:55:37;;;;;;;;;15.50;15.00;;;;;19.77;59.75;101420.13;5031028;28;45174;-94
2021/09/17 01:58:04;;;;;;;;;16.25;14.00;;;;;19.79;59.57;101427.19;5032998;28;44721;-94
2021/09/17 02:00:30;;;;;;;;;18.00;14.00;;;;;19.78;59.98;101417.53;5034866;28;45287;-94
2021/09/17 02:02:56;;;;;;;;;15.00;13.50;;;;;19.78;60.26;101424.53;5051188;28;47004;-91
2021/09/17 02:05:23;;;;;;;;;10.50;10.50;;;;;19.79;60.10;101418.41;5045576;28;45240;-96
2021/09/17 02:07:49;;;;;;;;;16.00;12.75;;;;;19.76;59.94;101414.00;5035541;28;44741;-93
2021/09/17 02:10:15;;;;;;;;;15.00;15.00;;;;;19.74;59.94;101410.47;5051399;28;44952;-92
2021/09/17 02:12:40;;;;;;;;;18.25;14.75;;;;;19.74;60.31;101405.19;5028244;28;47166;-95
2021/09/17 02:15:08;;;;;;;;;15.75;13.50;;;;;19.82;60.02;101407.06;5035293;28;45156;-92
2021/09/17 02:17:35;;;;;;;;;15.75;13.75;;;;;19.77;59.75;101396.47;5036133;28;44723;-93
2021/09/17 02:20:02;;;;;;;;;18.00;16.75;;;;;19.74;59.71;101393.81;5035900;28;45272;-90
2021/09/17 02:22:29;;;;;;;;;16.50;14.75;;;;;19.71;59.65;101388.50;5029626;28;45445;-90
2021/09/17 02:24:55;;;;;;;;;18.50;15.25;;;;;19.67;60.01;101390.22;5026001;28;45266;-90
2021/09/17 02:27:21;;;;;;;;;19.25;16.00;;;;;19.68;59.25;101391.97;5036148;28;45294;-89
2021/09/17 02:29:47;;;;;;;;;15.00;12.25;;;;;19.72;59.88;101396.41;5024948;28;45247;-89
2021/09/17 02:32:13;;;;;;;;;18.75;14.25;;;;;19.67;60.08;101392.84;5026051;28;46665;-89
2021/09/17 02:34:39;;;;;;;;;14.50;13.50;;;;;19.71;59.64;101393.75;5034046;28;45320;-89
2021/09/17 02:37:05;;;;;;;;;15.00;14.00;;;;;19.68;59.61;101394.59;5017915;28;45296;-91
2021/09/17 02:39:31;;;;;;;;;11.50;10.50;;;;;19.66;59.44;101385.81;5018503;28;45276;-89
2021/09/17 02:41:57;;;;;;;;;20.25;16.50;;;;;19.68;59.54;101385.81;5034393;28;47737;-89
2021/09/17 02:44:23;;;;;;;;;16.75;15.75;;;;;19.69;59.13;101393.75;5017086;28;45444;-89
2021/09/17 02:46:48;;;;;;;;;16.25;15.50;;;;;19.70;59.21;101387.63;5017048;28;45439;-90
2021/09/17 02:49:14;;;;;;;;;16.25;16.00;;;;;19.67;59.21;101379.69;5034016;28;45370;-89
2021/09/17 02:51:40;;;;;;;;;16.50;15.25;;;;;19.68;58.96;101383.19;5018028;28;45947;-89
2021/09/17 02:54:05;;;;;;;;;16.50;13.75;;;;;19.65;59.18;101371.78;5033550;28;45452;-89
2021/09/17 02:56:31;;;;;;;;;14.75;14.75;;;;;19.63;59.42;101370.91;5019684;28;45212;-90
2021/09/17 02:58:57;;;;;;;;;18.50;16.50;;;;;19.63;58.71;101376.16;5019579;28;45272;-89
2021/09/17 03:01:22;;;;;;;;;14.25;14.25;;;;;19.57;59.10;101376.03;5022159;28;45373;-89
2021/09/17 03:03:48;;;;;;;;;17.00;13.25;;;;;19.49;59.09;101372.41;5019891;28;45388;-90
2021/09/17 03:06:13;;;;;;;;;12.50;9.50;;;;;19.46;59.35;101378.50;5021001;28;45224;-89
2021/09/17 03:08:39;;;;;;;;;15.00;14.25;;;;;19.42;59.89;101373.16;5021531;28;45316;-89
2021/09/17 03:11:05;;;;;;;;;14.50;13.25;;;;;19.40;59.56;101374.88;5022196;28;46300;-90
2021/09/17 03:13:30;;;;;;;;;13.50;12.25;;;;;19.40;59.73;101373.09;5022067;28;45465;-89
2021/09/17 03:15:56;;;;;;;;;11.00;11.00;;;;;19.35;59.93;101364.28;5021189;28;45326;-90
2021/09/17 03:18:22;;;;;;;;;14.50;10.50;;;;;19.28;60.10;101362.38;5021747;28;45334;-90
2021/09/17 03:20:50;;;;;;;;;11.25;10.75;;;;;19.25;60.31;101355.34;5021637;28;46462;-89
2021/09/17 03:23:16;;;;;;;;;15.25;14.00;;;;;19.22;60.13;101355.28;5023128;28;45702;-90
2021/09/17 03:25:42;;;;;;;;;12.25;12.25;;;;;19.21;60.16;101350.03;5024481;28;45267;-91
2021/09/17 03:28:08;;;;;;;;;13.75;10.50;;;;;19.26;59.88;101358.88;5041258;28;46402;-91
2021/09/17 03:30:35;;;;;;;;;10.25;10.25;;;;;19.25;60.38;101357.09;5026099;28;45223;-91
2021/09/17 03:33:00;;;;;;;;;15.25;12.75;;;;;19.21;61.01;101357.91;5044842;28;45344;-91
2021/09/17 03:35:26;;;;;;;;;13.00;11.50;;;;;19.18;60.49;101358.72;5030699;28;45356;-91
2021/09/17 03:37:52;;;;;;;;;15.25;13.75;;;;;19.14;60.49;101355.19;5033381;28;44960;-93
2021/09/17 03:40:18;;;;;;;;;11.00;10.75;;;;;19.11;60.42;101346.38;5053102;28;47347;-91
2021/09/17 03:42:44;;;;;;;;;12.50;9.75;;;;;19.06;60.37;101338.38;5039974;28;45709;-89
2021/09/17 03:45:11;;;;;;;;;14.25;14.25;;;;;19.08;60.66;101352.41;5022571;28;45425;-89
2021/09/17 03:47:37;;;;;;;;;11.50;10.50;;;;;19.09;61.18;101345.44;5019943;28;45354;-89
2021/09/17 03:50:06;;;;;;;;;12.50;12.50;;;;;19.06;60.58;101345.38;5022318;28;46718;-90
2021/09/17 03:52:32;;;;;;;;;10.00;10.00;;;;;19.08;60.74;101341.91;5019463;28;45896;-88
2021/09/17 03:54:59;;;;;;;;;15.50;13.25;;;;;19.02;60.76;101340.06;5019382;28;45332;-89
2021/09/17 03:57:24;;;;;;;;;15.00;9.75;;;;;19.07;61.29;101355.03;5020699;28;45514;-89
2021/09/17 03:59:50;;;;;;;;;12.25;12.25;;;;;19.04;60.92;101348.00;5035126;28;46778;-89
2021/09/17 04:02:16;;;;;;;;;15.25;12.75;;;;;19.02;61.14;101349.69;5020431;28;45253;-88
2021/09/17 04:04:42;;;;;;;;;17.75;13.50;;;;;19.01;61.10;101343.53;5019852;28;45412;-89
2021/09/17 04:07:08;;;;;;;;;13.75;13.75;;;;;19.03;61.47;101352.34;5020232;28;45610;-88
2021/09/17 04:09:34;;;;;;;;;15.75;12.00;;;;;19.00;61.12;101341.81;5019101;28;45556;-88
2021/09/17 04:12:01;;;;;;;;;14.75;14.25;;;;;19.05;61.21;101347.13;5018630;28;45241;-88
2021/09/17 04:14:26;;;;;;;;;14.50;13.25;;;;;19.08;60.74;101341.06;5018444;28;45276;-88
2021/09/17 04:16:52;;;;;;;;;18.50;14.00;;;;;19.08;61.23;101344.53;5029544;28;45556;-87
2021/09/17 04:19:18;;;;;;;;;17.00;14.50;;;;;19.14;61.33;101349.94;5020795;28;45654;-88
2021/09/17 04:21:44;;;;;;;;;13.25;13.25;;;;;19.15;60.64;101346.44;5018491;28;45428;-87
2021/09/17 04:24:10;;;;;;;;;17.25;17.25;;;;;19.16;61.17;101340.34;5034014;28;45375;-88
2021/09/17 04:26:35;;;;;;;;;16.00;14.75;;;;;19.20;60.40;101345.63;5018879;28;45362;-86
2021/09/17 04:29:02;;;;;;;;;16.25;14.25;;;;;19.23;60.44;101343.06;5018732;28;45457;-88
2021/09/17 04:31:28;;;;;;;;;18.50;16.00;;;;;19.20;60.63;101345.63;5017845;28;45682;-88
2021/09/17 04:33:54;;;;;;;;;15.50;14.50;;;;;19.20;60.31;101343.91;5019395;28;45330;-88
2021/09/17 04:36:19;;;;;;;;;18.50;16.25;;;;;19.21;60.75;101342.16;5034576;28;45490;-88
2021/09/17 04:38:45;;;;;;;;;15.50;15.00;;;;;19.20;60.44;101338.66;5017041;28;47423;-88
2021/09/17 04:41:10;;;;;;;;;18.00;15.75;;;;;19.17;60.37;101336.84;5034054;28;45461;-89
2021/09/17 04:43:36;;;;;;;;;14.75;14.75;;;;;19.22;60.03;101342.16;5018659;28;45470;-88
2021/09/17 04:46:02;;;;;;;;;13.75;12.25;;;;;19.23;59.60;101345.69;5024660;28;45463;-88
2021/09/17 04:48:28;;;;;;;;;16.00;15.00;;;;;19.23;60.44;101343.06;5025551;28;46967;-87
2021/09/17 04:51:00;;;;;;;;;14.75;14.75;;;;;19.17;60.42;101334.22;5047217;28;45449;-93
2021/09/17 04:53:26;;;;;;;;;20.00;16.75;;;;;19.24;59.80;101356.19;5027661;28;45346;-87
2021/09/17 04:55:52;;;;;;;;;15.25;13.50;;;;;19.22;59.77;101339.53;5026175;28;45482;-89
2021/09/17 04:58:18;;;;;;;;;17.75;15.00;;;;;19.21;59.89;101342.16;5026574;28;46801;-88
2021/09/17 05:00:43;;;;;;;;;18.25;17.25;;;;;19.18;59.95;101341.22;5017212;28;45586;-91
2021/09/17 05:03:09;;;;;;;;;15.75;14.25;;;;;19.15;60.38;101340.28;5022363;28;45568;-86
2021/09/17 05:05:35;;;;;;;;;16.75;16.00;;;;;19.14;59.95;101346.41;5039864;28;45350;-91
2021/09/17 05:08:01;;;;;;;;;19.25;18.00;;;;;19.10;60.25;101337.59;5039019;28;47641;-88
2021/09/17 05:10:27;;;;;;;;;17.50;15.75;;;;;19.07;59.94;101334.03;5022134;28;45434;-87
2021/09/17 05:12:52;;;;;;;;;15.50;15.00;;;;;19.07;60.47;101336.66;5033353;28;45395;-87
2021/09/17 05:15:18;;;;;;;;;17.50;15.50;;;;;19.03;59.93;101326.09;5019555;28;45426;-87
2021/09/17 05:17:44;;;;;;;;;15.25;12.75;;;;;19.02;60.50;101332.19;5017698;28;45489;-87
2021/09/17 05:20:11;;;;;;;;;15.25;14.00;;;;;18.99;60.07;101336.50;5032538;28;45265;-94
2021/09/17 05:22:37;;;;;;;;;20.00;16.75;;;;;19.00;60.27;101340.91;5032898;28;45388;-90
2021/09/17 05:25:03;;;;;;;;;14.00;13.75;;;;;18.98;60.49;101337.38;5039421;28;45561;-87
2021/09/17 05:27:28;;;;;;;;;19.50;16.25;;;;;18.95;60.24;101332.09;5040305;28;46677;-92
2021/09/17 05:29:54;;;;;;;;;17.75;17.75;;;;;18.92;60.69;101324.09;5037795;28;45351;-85
2021/09/17 05:32:23;;;;;;;;;18.50;16.50;;;;;19.00;60.62;101343.53;5038833;28;45333;-87
2021/09/17 05:34:49;;;;;;;;;15.25;14.50;;;;;18.98;60.74;101335.63;5044720;28;45464;-84
2021/09/17 05:37:15;;;;;;;;;19.00;15.25;;;;;19.01;60.81;101334.81;5029021;28;45417;-86
2021/09/17 05:39:42;;;;;;;;;18.75;16.75;;;;;18.97;60.87;101332.97;5043092;28;45293;-87
2021/09/17 05:42:08;;;;;;;;;21.25;17.50;;;;;18.96;60.28;101336.44;5035698;28;45444;-87
2021/09/17 05:44:34;;;;;;;;;21.75;19.25;;;;;18.93;60.25;101337.28;5018691;28;45550;-87
2021/09/17 05:46:59;;;;;;;;;17.50;17.50;;;;;18.92;60.44;101334.59;5023999;28;46087;-88
2021/09/17 05:49:25;;;;;;;;;22.50;19.00;;;;;18.90;60.77;101331.94;5035116;28;45477;-85
2021/09/17 05:51:51;;;;;;;;;18.50;15.00;;;;;18.76;60.67;101333.44;5034955;28;45462;-88
2021/09/17 05:54:16;;;;;;;;;17.50;16.00;;;;;18.67;61.05;101326.25;5037252;28;45543;-87
2021/09/17 05:56:45;;;;;;;;;23.50;20.25;;;;;18.63;61.30;101322.69;5036496;28;46160;-88
2021/09/17 05:59:11;;;;;;;;;17.50;17.25;;;;;18.68;61.31;101330.66;5028212;28;45406;-88
2021/09/17 06:01:37;;;;;;;;;19.00;18.50;;;;;18.61;61.68;101331.41;5032493;28;45320;-82
2021/09/17 06:04:03;;;;;;;;;24.75;21.50;;;;;18.62;61.52;101325.28;5034982;28;45524;-86
2021/09/17 06:06:29;;;;;;;;;19.00;18.00;;;;;18.63;61.48;101329.66;5016859;28;45453;-85
2021/09/17 06:08:55;;;;;;;;;22.75;20.25;;;;;18.70;61.43;101328.94;5016136;28;45256;-85
2021/09/17 06:11:20;;;;;;;;;24.50;22.00;;;;;18.76;60.88;101336.91;5016410;28;45283;-86
2021/09/17 06:13:46;;;;;;;;;17.00;14.25;;;;;18.76;61.48;101329.06;5029818;28;45237;-89
2021/09/17 06:16:12;;;;;;;;;21.50;21.00;;;;;18.78;61.29;101324.72;5043657;28;47512;-92
2021/09/17 06:18:38;;;;;;;;;24.00;21.00;;;;;18.81;61.18;101327.41;5038212;28;45327;-90
2021/09/17 06:21:16;;;;;;;;;23.50;22.00;;;;;18.83;60.75;101330.06;5038689;28;45263;-91
2021/09/17 06:23:45;;;;;;;;;17.25;16.00;;;;;18.78;61.26;101319.47;5042432;28;45441;-92
2021/09/17 06:26:13;;;;;;;;;22.75;21.00;;;;;18.76;61.31;101328.19;5027580;28;45459;-89
2021/09/17 06:28:59;;;;;;;;;19.50;19.00;;;;;18.79;61.39;101323.00;5033626;28;45453;-83
2021/09/17 06:31:27;;;;;;;;;26.50;21.25;;;;;18.76;60.98;101312.44;4999489;28;45592;-82
2021/09/17 06:33:53;;;;;;;;;24.00;20.50;;;;;18.80;61.71;101314.25;5016961;28;45854;-81
2021/09/17 06:36:19;;;;;;;;;20.25;20.25;;;;;18.81;61.32;101314.31;5019074;28;45703;-84
2021/09/17 06:38:44;;;;;;;;;22.00;18.50;;;;;18.84;61.45;101318.72;5015596;28;45394;-83
2021/09/17 06:41:10;;;;;;;;;18.75;17.25;;;;;18.85;61.49;101313.47;5026793;28;45368;-84
2021/09/17 06:43:36;;;;;;;;;17.00;15.00;;;;;18.86;61.10;101311.75;5034855;28;45556;-82
2021/09/17 06:46:02;;;;;;;;;18.75;16.75;;;;;18.87;61.31;101316.16;5034930;28;45907;-81
2021/09/17 06:48:28;;;;;;;;;21.75;21.75;;;;;18.87;61.40;101310.91;5051006;28;45778;-82
2021/09/17 06:50:53;;;;;;;;;24.75;24.50;;;;;18.90;60.86;101315.31;5035603;28;45294;-82
2021/09/17 06:53:19;;;;;;;;;24.50;24.25;;;;;18.89;61.32;101306.56;5035977;28;45209;-83
2021/09/17 06:55:45;;;;;;;;;28.25;22.75;;;;;18.91;61.19;101307.47;5035138;28;46297;-83
2021/09/17 06:58:10;;;;;;;;;23.75;21.50;;;;;18.93;61.01;101315.38;5035520;28;45239;-82
2021/09/17 07:00:38;;;;;;;;;29.00;22.50;;;;;18.96;61.43;101311.09;5035440;28;45366;-81
2021/09/17 07:03:04;;;;;;;;;24.25;22.75;;;;;18.95;61.27;101309.34;5035965;28;45376;-81
2021/09/17 07:05:31;;;;;;;;;29.25;24.25;;;;;18.99;61.05;101316.41;5035811;28;46497;-81
2021/09/17 07:08:09;;;;;;;;;26.50;25.25;;;;;19.01;61.66;101309.44;5035096;28;45291;-81
2021/09/17 07:10:36;;;;;;;;;26.25;21.00;;;;;19.06;60.93;101312.13;5035208;28;45306;-82
2021/09/17 07:13:02;;;;;;;;;29.75;24.75;;;;;19.06;61.37;101314.75;5035958;28;45480;-82
2021/09/17 07:15:28;;;;;;;;;25.00;22.25;;;;;19.06;60.98;101311.25;5035696;28;46066;-82
2021/09/17 07:17:54;;;;;;;;;26.50;25.00;;;;;19.04;61.00;101308.63;5034888;28;45460;-82
2021/09/17 07:20:20;;;;;;;;;22.75;22.75;;;;;19.07;61.34;101305.16;5035379;28;45356;-82
2021/09/17 07:22:46;;;;;;;;;28.25;24.25;;;;;19.13;60.95;101302.63;5035058;28;45400;-82
2021/09/17 07:25:16;;;;;;;;;26.25;24.25;;;;;19.17;60.95;101307.97;5050673;28;46773;-83
2021/09/17 07:27:42;;;;;;;;;28.75;24.75;;;;;19.21;61.39;101302.78;5034126;28;45382;-81
2021/09/17 07:30:08;;;;;;;;;29.25;27.50;;;;;19.26;61.39;101303.75;5035256;28;45334;-84
2021/09/17 07:32:34;;;;;;;;;31.25;28.00;;;;;19.27;60.81;101295.00;5034536;28;45420;-84
2021/09/17 07:35:00;;;;;;;;;45.25;32.00;;;;;19.29;61.42;101302.06;5030603;28;45412;-81
2021/09/17 07:37:26;;;;;;;;;33.75;29.25;;;;;19.32;61.36;101306.47;5033276;28;45624;-84
2021/09/17 07:39:51;;;;;;;;;31.50;29.00;;;;;19.32;61.12;101302.13;5034731;28;45489;-87
2021/09/17 07:42:21;;;;;;;;;32.00;28.25;;;;;19.34;61.31;101302.13;5050131;28;45515;-85
2021/09/17 07:44:46;;;;;;;;;31.75;26.50;;;;;19.38;61.02;101303.06;5019275;28;45465;-86
2021/09/17 07:47:12;;;;;;;;;31.50;26.25;;;;;19.39;60.72;101310.94;5037332;28;45519;-84
2021/09/17 07:49:38;;;;;;;;;25.00;24.25;;;;;19.43;60.77;101306.66;5042460;28;45297;-87
2021/09/17 07:52:04;;;;;;;;;30.00;29.25;;;;;19.46;61.27;101307.59;5045441;28;45437;-88
2021/09/17 07:54:30;;;;;;;;;27.75;25.75;;;;;19.48;61.09;101311.13;5018609;28;46118;-83
2021/09/17 07:56:56;;;;;;;;;29.00;27.50;;;;;19.51;60.43;101312.91;5034318;28;45426;-82
2021/09/17 07:59:22;;;;;;;;;32.25;28.50;;;;;19.52;61.08;101313.78;5037396;28;45382;-83
2021/09/17 08:01:50;;;;;;;;;38.25;30.50;;;;;19.53;60.49;101316.44;5034841;28;45528;-82
2021/09/17 08:04:16;;;;;;;;;34.50;31.50;;;;;19.56;60.39;101313.84;5037044;28;45421;-84
2021/09/17 08:06:42;;;;;;;;;30.50;28.25;;;;;19.58;60.82;101314.75;5037139;28;45502;-86
2021/09/17 08:09:07;;;;;;;;;33.25;30.00;;;;;19.61;60.93;101317.44;5039086;28;45804;-86
2021/09/17 08:11:36;;;;;;;;;37.50;31.25;;;;;19.67;60.59;101310.50;5038016;28;45484;-85
2021/09/17 08:14:03;;;;;;;;;34.25;30.25;;;;;19.71;60.37;101313.19;5036792;28;45309;-85
2021/09/17 08:16:28;;;;;;;;;33.75;29.50;;;;;19.75;60.26;101315.00;5036594;28;45535;-85
2021/09/17 08:18:57;;;;;;;;;33.00;30.25;;;;;19.80;60.14;101310.72;5037706;28;45263;-84
2021/09/17 08:21:22;;;;;;;;;32.25;27.00;;;;;19.83;60.21;101312.50;5038363;28;45852;-88
2021/09/17 08:23:48;;;;;;;;;33.50;29.25;;;;;19.89;60.42;101314.38;5037417;28;45355;-85
2021/09/17 08:26:14;;;;;;;;;27.75;27.50;;;;;19.91;60.13;101316.16;5038016;28;45457;-85
2021/09/17 08:28:39;;;;;;;;;21.00;19.50;;;;;19.94;60.05;101310.06;5037572;28;45316;-88
2021/09/17 08:31:05;;;;;;;;;24.00;21.00;;;;;19.90;59.12;101295.13;5037876;28;45535;-88
2021/09/17 08:33:32;;;;;;;;;28.25;23.50;;;;;19.97;58.90;101302.22;5036564;28;46877;-86
2021/09/17 08:35:59;;;;;;;;;23.00;20.25;;;;;19.95;59.10;101296.06;5049094;28;45705;-85
2021/09/17 08:38:25;;;;;;;;;19.00;17.75;;;;;20.05;58.53;101307.59;5043675;28;45492;-89
2021/09/17 08:40:52;;;;;;;;;23.25;20.75;;;;;20.06;58.72;101298.84;5036908;28;45533;-88
2021/09/17 08:43:18;;;;;;;;;17.00;14.75;;;;;20.04;58.48;101309.31;5025766;28;46777;-87
2021/09/17 08:45:44;;;;;;;;;18.00;16.50;;;;;20.09;58.18;101307.66;5037125;28;45510;-86
2021/09/17 08:48:12;;;;;;;;;24.00;18.75;;;;;20.07;58.34;101298.84;5036478;28;45536;-87
2021/09/17 08:50:38;;;;;;;;;22.25;19.00;;;;;20.10;57.79;101305.88;5037807;28;45321;-86
2021/09/17 08:53:03;;;;;;;;;17.25;14.25;;;;;20.13;57.93;101303.31;5037083;28;46079;-86
2021/09/17 08:55:30;;;;;;;;;19.00;18.75;;;;;20.16;57.69;101305.09;5033593;28;45480;-86
2021/09/17 08:57:56;;;;;;;;;22.00;18.25;;;;;20.20;57.25;101305.16;5016829;28;45286;-81
2021/09/17 09:00:28;;;;;;;;;19.50;16.25;;;;;20.22;57.12;101303.44;5017544;28;45281;-80
2021/09/17 09:02:56;;;;;;;;;14.25;14.25;;;;;20.25;56.78;101298.22;5032027;28;46970;-80
2021/09/17 09:05:30;;;;;;;;;18.75;15.75;;;;;20.28;57.05;101297.38;5017085;28;46137;-81
2021/09/17 09:07:57;;;;;;;;;14.25;13.00;;;;;20.32;56.42;101298.28;5017015;28;45370;-80
2021/09/17 09:10:27;;;;;;;;;16.75;15.00;;;;;20.35;56.65;101295.69;5036920;28;45518;-81
2021/09/17 09:12:55;;;;;;;;;16.00;13.50;;;;;20.39;56.22;101297.50;5036486;28;46037;-82
2021/09/17 09:15:26;;;;;;;;;14.75;13.00;;;;;20.37;56.56;101286.09;5036969;28;45646;-82
2021/09/17 09:18:13;;;;;;;;;13.25;11.50;;;;;20.38;55.48;101283.47;5036800;28;45285;-81
2021/09/17 09:20:43;;;;;;;;;16.00;13.50;;;;;20.37;55.59;101275.56;5033769;28;45471;-82
2021/09/17 09:23:31;;;;;;;;;15.00;15.00;;;;;20.47;55.60;101294.94;5016919;28;45560;-82
2021/09/17 09:26:10;;;;;;;;;11.75;11.75;;;;;20.46;55.42;101283.56;5016717;28;45264;-83
2021/09/17 09:28:45;;;;;;;;;14.50;12.00;;;;;20.48;55.24;101279.19;5016622;28;45283;-81
2021/09/17 09:31:18;;;;;;;;;13.25;11.00;;;;;20.48;54.85;101275.66;5019694;28;45224;-82
2021/09/17 09:33:47;;;;;;;;;10.50;10.50;;;;;20.57;54.98;101288.94;5027321;28;46438;-84
2021/09/17 09:36:18;;;;;;;;;10.25;9.75;;;;;20.58;54.35;101290.69;5039257;28;45387;-86
2021/09/17 09:38:53;;;;;;;;;11.25;11.00;;;;;20.63;54.20;101293.38;5021146;28;45244;-86
2021/09/17 09:41:37;;;;;;;;;9.25;8.50;;;;;20.63;54.58;101286.38;5038620;28;45396;-87
2021/09/17 09:44:16;;;;;;;;;9.50;9.00;;;;;20.67;53.97;101276.75;5052694;28;46916;-86
2021/09/17 09:46:45;;;;;;;;;7.25;7.00;;;;;20.71;53.88;101287.34;5034763;28;45766;-82
2021/09/17 09:49:16;;;;;;;;;6.25;6.25;;;;;20.73;53.64;101277.72;5036665;28;45454;-86
2021/09/17 09:51:52;;;;;;;;;11.75;11.25;;;;;20.73;53.70;101272.44;5034774;28;45674;-86
2021/09/17 09:54:18;;;;;;;;;10.00;9.00;;;;;20.79;54.20;101276.03;5033908;28;46370;-86
2021/09/17 09:56:54;;;;;;;;;9.25;9.00;;;;;20.83;54.29;101283.09;5031224;28;45330;-86
2021/09/17 09:59:24;;;;;;;;;7.25;7.00;;;;;20.81;52.04;101274.28;5028866;28;45359;-91
2021/09/17 10:01:54;;;;;;;;;11.50;10.75;;;;;20.82;52.45;101269.06;5036058;28;45212;-85
2021/09/17 10:04:22;;;;;;;;;9.00;9.00;;;;;20.90;53.08;101271.75;5016332;28;45423;-85
2021/09/17 10:07:09;;;;;;;;;10.00;9.50;;;;;20.91;52.07;101268.25;5024458;28;45214;-85
2021/09/17 10:09:41;;;;;;;;;7.00;7.00;;;;;20.94;52.39;101268.28;5035282;28;45463;-84
2021/09/17 10:12:14;;;;;;;;;8.75;7.50;;;;;20.95;51.53;101259.53;5020362;28;45439;-84
2021/09/17 10:14:59;;;;;;;;;8.75;8.00;;;;;20.96;52.38;101257.75;5038653;28;45424;-83
2021/09/17 10:17:41;;;;;;;;;;;;;;;;;;;;;
2021/09/17 10:20:11;;;;;;;;;12.75;9.75;;;;;21.00;52.26;101244.63;5039183;28;70022;-84
2021/09/17 10:22:44;;;;;;;;;10.50;9.00;;;;;21.11;51.14;101260.53;5035643;28;45619;-86
2021/09/17 10:25:23;;;;;;;;;7.25;5.75;;;;;21.14;51.29;101259.69;5037185;28;45410;-82
2021/09/17 10:28:11;;;;;;;;;8.50;8.50;;;;;21.14;51.21;101255.31;5035187;28;45602;-79
2021/09/17 10:30:40;;;;;;;;;5.75;5.75;;;;;21.17;51.00;101254.44;5033767;28;45601;-81
2021/09/17 10:33:25;;;;;;;;;7.00;5.25;;;;;21.19;49.90;101255.34;5036256;28;45476;-83
2021/09/17 10:35:51;;;;;;;;;8.00;7.50;;;;;21.24;49.81;101256.25;5035619;28;46464;-83
2021/09/17 10:38:17;;;;;;;;;5.50;5.50;;;;;21.26;49.49;101256.28;5035918;28;45338;-84
2021/09/17 10:40:56;;;;;;;;;8.50;5.25;;;;;21.30;49.60;101253.69;5035481;28;45329;-83
2021/09/17 10:43:46;;;;;;;;;10.50;7.75;;;;;21.34;49.85;101250.19;5035950;28;45304;-83
2021/09/17 10:46:21;;;;;;;;;5.75;5.00;;;;;21.39;49.74;101244.06;5035672;28;46484;-83
2021/09/17 10:48:51;;;;;;;;;7.00;7.00;;;;;21.41;49.79;101245.84;5035451;28;45385;-83
2021/09/17 10:51:36;;;;;;;;;7.50;6.00;;;;;21.43;49.35;101241.47;5035574;28;45418;-82
2021/09/17 10:54:07;;;;;;;;;10.00;9.00;;;;;21.46;49.50;101248.50;5036041;28;45507;-82
2021/09/17 10:56:51;;;;;;;;;7.50;6.00;;;;;21.49;49.21;101243.25;5050567;28;46658;-81
2021/09/17 10:59:22;;;;;;;;;7.00;5.25;;;;;21.51;49.12;101241.53;5035245;28;45853;-82
2021/09/17 11:01:55;;;;;;;;;8.25;8.25;;;;;21.53;48.88;101247.69;5034043;28;45944;-82
2021/09/17 11:04:35;;;;;;;;;9.00;9.00;;;;;21.55;49.20;101240.66;5035778;28;45441;-81
2021/09/17 11:07:16;;;;;;;;;7.00;7.00;;;;;21.58;49.10;101235.41;5035643;28;46484;-82
2021/09/17 11:09:46;;;;;;;;;6.50;5.50;;;;;21.61;49.39;101239.84;5037040;28;45387;-83
2021/09/17 11:12:26;;;;;;;;;5.25;4.25;;;;;21.60;48.84;101231.06;5035485;28;45314;-82
2021/09/17 11:15:04;;;;;;;;;8.50;8.00;;;;;21.64;48.48;101238.13;5035327;28;45406;-81